sensor_id;sensor_type;location;lat;lon;timestamp;P1;durP1;ratioP1;P2;durP2;ratioP2
35839;SDS011;35514;50.504;30.500;2023-04-24T00:01:18;30.80;;;12.50;;
35839;SDS011;35514;50.504;30.500;2023-04-24T00:03:46;32.92;;;11.82;;
35839;SDS011;35514;50.504;30.500;2023-04-24T00:06:15;39.90;;;12.45;;
35839;SDS011;35514;50.504;30.500;2023-04-24T00:08:44;26.60;;;11.00;;
35839;SDS011;35514;50.504;30.500;2023-04-24T00:11:36;31.80;;;11.52;;
35839;SDS011;35514;50.504;30.500;2023-04-24T00:14:03;34.75;;;13.32;;
35839;SDS011;35514;50.504;30.500;2023-04-24T00:16:31;27.90;;;11.32;;
35839;SDS011;35514;50.504;30.500;2023-04-24T00:18:59;26.92;;;10.80;;
35839;SDS011;35514;50.504;30.500;2023-04-24T00:21:28;24.35;;;10.65;;
35839;SDS011;35514;50.504;30.500;2023-04-24T00:23:56;31.75;;;11.95;;
35839;SDS011;35514;50.504;30.500;2023-04-24T00:26:24;39.40;;;11.75;;
35839;SDS011;35514;50.504;30.500;2023-04-24T00:28:51;27.20;;;11.38;;
35839;SDS011;35514;50.504;30.500;2023-04-24T00:31:19;31.92;;;11.25;;
35839;SDS011;35514;50.504;30.500;2023-04-24T00:33:46;30.15;;;12.60;;
35839;SDS011;35514;50.504;30.500;2023-04-24T00:36:14;25.67;;;11.57;;
35839;SDS011;35514;50.504;30.500;2023-04-24T00:38:43;27.55;;;11.30;;
35839;SDS011;35514;50.504;30.500;2023-04-24T00:41:11;33.88;;;10.50;;
35839;SDS011;35514;50.504;30.500;2023-04-24T00:43:39;34.70;;;12.80;;
35839;SDS011;35514;50.504;30.500;2023-04-24T00:46:06;36.70;;;11.90;;
35839;SDS011;35514;50.504;30.500;2023-04-24T00:48:34;32.35;;;12.60;;
35839;SDS011;35514;50.504;30.500;2023-04-24T00:51:02;33.15;;;10.50;;
35839;SDS011;35514;50.504;30.500;2023-04-24T00:53:30;32.70;;;11.82;;
35839;SDS011;35514;50.504;30.500;2023-04-24T00:55:59;27.00;;;10.70;;
35839;SDS011;35514;50.504;30.500;2023-04-24T00:58:27;20.63;;;10.18;;
35839;SDS011;35514;50.504;30.500;2023-04-24T01:00:54;32.42;;;9.82;;
35839;SDS011;35514;50.504;30.500;2023-04-24T01:03:24;27.63;;;10.73;;
35839;SDS011;35514;50.504;30.500;2023-04-24T01:05:52;30.23;;;10.25;;
35839;SDS011;35514;50.504;30.500;2023-04-24T01:08:21;27.02;;;10.20;;
35839;SDS011;35514;50.504;30.500;2023-04-24T01:10:50;24.73;;;11.50;;
35839;SDS011;35514;50.504;30.500;2023-04-24T01:13:20;23.60;;;11.75;;
35839;SDS011;35514;50.504;30.500;2023-04-24T01:15:48;21.05;;;9.95;;
35839;SDS011;35514;50.504;30.500;2023-04-24T01:21:09;28.23;;;10.60;;
35839;SDS011;35514;50.504;30.500;2023-04-24T01:23:40;31.80;;;10.80;;
35839;SDS011;35514;50.504;30.500;2023-04-24T01:26:08;26.33;;;10.57;;
35839;SDS011;35514;50.504;30.500;2023-04-24T01:28:36;37.38;;;10.65;;
35839;SDS011;35514;50.504;30.500;2023-04-24T01:31:04;22.77;;;9.52;;
35839;SDS011;35514;50.504;30.500;2023-04-24T01:33:31;26.50;;;10.38;;
35839;SDS011;35514;50.504;30.500;2023-04-24T01:36:23;30.55;;;10.73;;
35839;SDS011;35514;50.504;30.500;2023-04-24T01:38:53;33.47;;;12.20;;
35839;SDS011;35514;50.504;30.500;2023-04-24T01:41:21;33.40;;;10.93;;
35839;SDS011;35514;50.504;30.500;2023-04-24T01:43:48;31.60;;;11.75;;
35839;SDS011;35514;50.504;30.500;2023-04-24T01:46:16;21.13;;;9.80;;
35839;SDS011;35514;50.504;30.500;2023-04-24T01:48:44;23.30;;;11.27;;
35839;SDS011;35514;50.504;30.500;2023-04-24T01:51:12;29.13;;;11.70;;
35839;SDS011;35514;50.504;30.500;2023-04-24T01:53:40;25.15;;;12.23;;
35839;SDS011;35514;50.504;30.500;2023-04-24T01:56:08;21.02;;;10.52;;
35839;SDS011;35514;50.504;30.500;2023-04-24T01:58:36;29.90;;;10.50;;
35839;SDS011;35514;50.504;30.500;2023-04-24T02:01:31;27.13;;;11.48;;
35839;SDS011;35514;50.504;30.500;2023-04-24T02:04:24;21.90;;;10.55;;
35839;SDS011;35514;50.504;30.500;2023-04-24T02:07:16;29.42;;;10.80;;
35839;SDS011;35514;50.504;30.500;2023-04-24T02:09:43;34.33;;;11.73;;
35839;SDS011;35514;50.504;30.500;2023-04-24T02:15:06;22.35;;;10.73;;
35839;SDS011;35514;50.504;30.500;2023-04-24T02:17:34;22.90;;;10.55;;
35839;SDS011;35514;50.504;30.500;2023-04-24T02:20:02;29.35;;;11.70;;
35839;SDS011;35514;50.504;30.500;2023-04-24T02:22:30;27.60;;;11.30;;
35839;SDS011;35514;50.504;30.500;2023-04-24T02:24:58;27.17;;;10.98;;
35839;SDS011;35514;50.504;30.500;2023-04-24T02:30:42;22.80;;;10.77;;
35839;SDS011;35514;50.504;30.500;2023-04-24T02:33:10;25.73;;;10.55;;
35839;SDS011;35514;50.504;30.500;2023-04-24T02:35:38;24.98;;;11.25;;
35839;SDS011;35514;50.504;30.500;2023-04-24T02:38:05;28.00;;;10.30;;
35839;SDS011;35514;50.504;30.500;2023-04-24T02:40:33;32.65;;;12.73;;
35839;SDS011;35514;50.504;30.500;2023-04-24T02:43:00;38.72;;;15.18;;
35839;SDS011;35514;50.504;30.500;2023-04-24T02:45:53;24.55;;;12.07;;
35839;SDS011;35514;50.504;30.500;2023-04-24T02:48:21;22.25;;;11.75;;
35839;SDS011;35514;50.504;30.500;2023-04-24T02:50:48;32.45;;;11.32;;
35839;SDS011;35514;50.504;30.500;2023-04-24T02:53:16;28.15;;;13.35;;
35839;SDS011;35514;50.504;30.500;2023-04-24T02:55:44;32.42;;;12.85;;
35839;SDS011;35514;50.504;30.500;2023-04-24T02:58:12;27.67;;;11.95;;
35839;SDS011;35514;50.504;30.500;2023-04-24T03:00:41;27.25;;;12.88;;
35839;SDS011;35514;50.504;30.500;2023-04-24T03:03:11;46.05;;;13.82;;
35839;SDS011;35514;50.504;30.500;2023-04-24T03:05:39;27.50;;;11.52;;
35839;SDS011;35514;50.504;30.500;2023-04-24T03:08:06;34.63;;;11.10;;
35839;SDS011;35514;50.504;30.500;2023-04-24T03:10:58;37.08;;;10.75;;
35839;SDS011;35514;50.504;30.500;2023-04-24T03:13:25;28.48;;;11.90;;
35839;SDS011;35514;50.504;30.500;2023-04-24T03:15:53;28.67;;;11.90;;
35839;SDS011;35514;50.504;30.500;2023-04-24T03:18:22;28.27;;;10.68;;
35839;SDS011;35514;50.504;30.500;2023-04-24T03:20:50;49.55;;;12.48;;
35839;SDS011;35514;50.504;30.500;2023-04-24T03:23:17;31.70;;;11.50;;
35839;SDS011;35514;50.504;30.500;2023-04-24T03:25:45;35.90;;;13.10;;
35839;SDS011;35514;50.504;30.500;2023-04-24T03:28:14;31.55;;;13.38;;
35839;SDS011;35514;50.504;30.500;2023-04-24T03:30:42;32.78;;;13.02;;
35839;SDS011;35514;50.504;30.500;2023-04-24T03:33:09;31.73;;;12.45;;
35839;SDS011;35514;50.504;30.500;2023-04-24T03:35:38;30.63;;;11.20;;
35839;SDS011;35514;50.504;30.500;2023-04-24T03:38:07;32.55;;;11.98;;
35839;SDS011;35514;50.504;30.500;2023-04-24T03:40:38;44.10;;;15.43;;
35839;SDS011;35514;50.504;30.500;2023-04-24T03:43:05;28.70;;;12.00;;
35839;SDS011;35514;50.504;30.500;2023-04-24T03:45:33;29.48;;;10.85;;
35839;SDS011;35514;50.504;30.500;2023-04-24T03:48:00;32.35;;;14.07;;
35839;SDS011;35514;50.504;30.500;2023-04-24T03:50:28;27.17;;;10.88;;
35839;SDS011;35514;50.504;30.500;2023-04-24T03:52:57;30.55;;;10.63;;
35839;SDS011;35514;50.504;30.500;2023-04-24T03:55:25;29.17;;;11.60;;
35839;SDS011;35514;50.504;30.500;2023-04-24T03:58:17;22.77;;;9.85;;
35839;SDS011;35514;50.504;30.500;2023-04-24T04:00:45;28.58;;;9.63;;
35839;SDS011;35514;50.504;30.500;2023-04-24T04:03:17;20.65;;;10.05;;
35839;SDS011;35514;50.504;30.500;2023-04-24T04:06:09;21.20;;;9.23;;
35839;SDS011;35514;50.504;30.500;2023-04-24T04:08:40;21.25;;;9.38;;
35839;SDS011;35514;50.504;30.500;2023-04-24T04:11:08;17.05;;;9.10;;
35839;SDS011;35514;50.504;30.500;2023-04-24T04:13:36;24.08;;;10.85;;
35839;SDS011;35514;50.504;30.500;2023-04-24T04:16:28;23.30;;;9.15;;
35839;SDS011;35514;50.504;30.500;2023-04-24T04:18:58;33.85;;;9.27;;
35839;SDS011;35514;50.504;30.500;2023-04-24T04:21:26;21.55;;;9.50;;
35839;SDS011;35514;50.504;30.500;2023-04-24T04:23:55;22.88;;;9.48;;
35839;SDS011;35514;50.504;30.500;2023-04-24T04:26:23;25.17;;;8.93;;
35839;SDS011;35514;50.504;30.500;2023-04-24T04:28:51;20.73;;;9.02;;
35839;SDS011;35514;50.504;30.500;2023-04-24T04:31:19;22.70;;;8.85;;
35839;SDS011;35514;50.504;30.500;2023-04-24T04:33:47;28.67;;;10.98;;
35839;SDS011;35514;50.504;30.500;2023-04-24T04:36:14;22.60;;;9.57;;
35839;SDS011;35514;50.504;30.500;2023-04-24T04:38:43;20.45;;;10.00;;
35839;SDS011;35514;50.504;30.500;2023-04-24T04:41:12;24.58;;;10.00;;
35839;SDS011;35514;50.504;30.500;2023-04-24T04:43:39;33.35;;;10.07;;
35839;SDS011;35514;50.504;30.500;2023-04-24T04:46:08;24.52;;;10.60;;
35839;SDS011;35514;50.504;30.500;2023-04-24T04:48:37;20.48;;;8.77;;
35839;SDS011;35514;50.504;30.500;2023-04-24T04:51:05;21.95;;;8.65;;
35839;SDS011;35514;50.504;30.500;2023-04-24T04:53:33;29.05;;;8.70;;
35839;SDS011;35514;50.504;30.500;2023-04-24T04:56:01;19.27;;;8.38;;
35839;SDS011;35514;50.504;30.500;2023-04-24T04:58:30;29.02;;;8.63;;
35839;SDS011;35514;50.504;30.500;2023-04-24T05:00:57;27.00;;;8.90;;
35839;SDS011;35514;50.504;30.500;2023-04-24T05:03:25;25.63;;;8.52;;
35839;SDS011;35514;50.504;30.500;2023-04-24T05:05:53;16.88;;;7.18;;
35839;SDS011;35514;50.504;30.500;2023-04-24T05:08:21;15.50;;;6.95;;
35839;SDS011;35514;50.504;30.500;2023-04-24T05:10:53;23.05;;;6.28;;
35839;SDS011;35514;50.504;30.500;2023-04-24T05:13:21;13.27;;;5.80;;
35839;SDS011;35514;50.504;30.500;2023-04-24T05:16:05;20.50;;;6.28;;
35839;SDS011;35514;50.504;30.500;2023-04-24T05:18:57;16.85;;;5.30;;
35839;SDS011;35514;50.504;30.500;2023-04-24T05:21:25;27.00;;;6.57;;
35839;SDS011;35514;50.504;30.500;2023-04-24T05:23:53;18.83;;;7.28;;
35839;SDS011;35514;50.504;30.500;2023-04-24T05:26:20;18.15;;;6.88;;
35839;SDS011;35514;50.504;30.500;2023-04-24T05:28:49;15.55;;;5.82;;
35839;SDS011;35514;50.504;30.500;2023-04-24T05:31:21;14.45;;;6.05;;
35839;SDS011;35514;50.504;30.500;2023-04-24T05:33:54;13.68;;;5.40;;
35839;SDS011;35514;50.504;30.500;2023-04-24T05:36:22;15.02;;;5.60;;
35839;SDS011;35514;50.504;30.500;2023-04-24T05:38:50;14.32;;;6.95;;
35839;SDS011;35514;50.504;30.500;2023-04-24T05:41:17;17.25;;;5.82;;
35839;SDS011;35514;50.504;30.500;2023-04-24T05:43:48;14.90;;;5.70;;
35839;SDS011;35514;50.504;30.500;2023-04-24T05:46:19;23.60;;;5.90;;
35839;SDS011;35514;50.504;30.500;2023-04-24T05:49:13;17.20;;;6.10;;
35839;SDS011;35514;50.504;30.500;2023-04-24T05:52:07;12.38;;;5.40;;
35839;SDS011;35514;50.504;30.500;2023-04-24T05:54:35;12.95;;;5.43;;
35839;SDS011;35514;50.504;30.500;2023-04-24T05:57:03;12.55;;;5.75;;
35839;SDS011;35514;50.504;30.500;2023-04-24T05:59:39;16.33;;;6.13;;
35839;SDS011;35514;50.504;30.500;2023-04-24T06:02:31;13.55;;;5.88;;
35839;SDS011;35514;50.504;30.500;2023-04-24T06:04:59;16.23;;;5.85;;
35839;SDS011;35514;50.504;30.500;2023-04-24T06:07:27;9.48;;;4.85;;
35839;SDS011;35514;50.504;30.500;2023-04-24T06:09:55;10.75;;;6.00;;
35839;SDS011;35514;50.504;30.500;2023-04-24T06:12:23;8.70;;;4.00;;
35839;SDS011;35514;50.504;30.500;2023-04-24T06:14:50;8.30;;;4.40;;
35839;SDS011;35514;50.504;30.500;2023-04-24T06:17:18;9.27;;;4.30;;
35839;SDS011;35514;50.504;30.500;2023-04-24T06:19:47;13.35;;;5.53;;
35839;SDS011;35514;50.504;30.500;2023-04-24T06:22:20;12.70;;;5.07;;
35839;SDS011;35514;50.504;30.500;2023-04-24T06:34:44;10.50;;;4.60;;
35839;SDS011;35514;50.504;30.500;2023-04-24T06:37:13;13.70;;;4.38;;
35839;SDS011;35514;50.504;30.500;2023-04-24T06:39:42;13.55;;;4.53;;
35839;SDS011;35514;50.504;30.500;2023-04-24T06:42:10;10.75;;;4.57;;
35839;SDS011;35514;50.504;30.500;2023-04-24T06:45:02;8.13;;;3.97;;
35839;SDS011;35514;50.504;30.500;2023-04-24T06:47:53;15.32;;;5.07;;
35839;SDS011;35514;50.504;30.500;2023-04-24T06:50:48;11.43;;;3.78;;
35839;SDS011;35514;50.504;30.500;2023-04-24T06:53:47;8.98;;;4.07;;
35839;SDS011;35514;50.504;30.500;2023-04-24T06:56:24;10.32;;;3.20;;
35839;SDS011;35514;50.504;30.500;2023-04-24T06:59:17;11.30;;;2.95;;
35839;SDS011;35514;50.504;30.500;2023-04-24T07:01:47;7.78;;;3.00;;
35839;SDS011;35514;50.504;30.500;2023-04-24T07:04:15;10.00;;;3.55;;
35839;SDS011;35514;50.504;30.500;2023-04-24T07:06:43;11.15;;;3.70;;
35839;SDS011;35514;50.504;30.500;2023-04-24T07:09:16;8.63;;;2.70;;
35839;SDS011;35514;50.504;30.500;2023-04-24T07:11:44;8.95;;;2.85;;
35839;SDS011;35514;50.504;30.500;2023-04-24T07:14:12;10.50;;;3.40;;
35839;SDS011;35514;50.504;30.500;2023-04-24T07:16:40;7.35;;;2.67;;
35839;SDS011;35514;50.504;30.500;2023-04-24T07:19:08;10.35;;;3.70;;
35839;SDS011;35514;50.504;30.500;2023-04-24T07:21:36;7.47;;;3.25;;
35839;SDS011;35514;50.504;30.500;2023-04-24T07:30:05;13.63;;;3.05;;
35839;SDS011;35514;50.504;30.500;2023-04-24T07:32:33;9.57;;;3.80;;
35839;SDS011;35514;50.504;30.500;2023-04-24T07:35:01;7.40;;;3.35;;
35839;SDS011;35514;50.504;30.500;2023-04-24T07:37:30;6.95;;;3.30;;
35839;SDS011;35514;50.504;30.500;2023-04-24T07:40:00;6.20;;;3.15;;
35839;SDS011;35514;50.504;30.500;2023-04-24T07:42:28;10.50;;;3.00;;
35839;SDS011;35514;50.504;30.500;2023-04-24T07:45:22;4.80;;;2.25;;
35839;SDS011;35514;50.504;30.500;2023-04-24T07:47:52;8.32;;;2.05;;
35839;SDS011;35514;50.504;30.500;2023-04-24T07:50:20;6.82;;;2.40;;
35839;SDS011;35514;50.504;30.500;2023-04-24T07:52:47;6.45;;;2.33;;
35839;SDS011;35514;50.504;30.500;2023-04-24T07:55:15;9.05;;;2.35;;
35839;SDS011;35514;50.504;30.500;2023-04-24T07:57:42;4.45;;;2.40;;
35839;SDS011;35514;50.504;30.500;2023-04-24T08:00:10;3.95;;;2.03;;
35839;SDS011;35514;50.504;30.500;2023-04-24T08:02:39;6.22;;;2.40;;
35839;SDS011;35514;50.504;30.500;2023-04-24T08:05:08;6.18;;;2.45;;
35839;SDS011;35514;50.504;30.500;2023-04-24T08:07:36;6.28;;;2.97;;
35839;SDS011;35514;50.504;30.500;2023-04-24T08:10:04;6.75;;;2.55;;
35839;SDS011;35514;50.504;30.500;2023-04-24T08:12:32;2.90;;;1.80;;
35839;SDS011;35514;50.504;30.500;2023-04-24T08:14:59;4.28;;;1.88;;
35839;SDS011;35514;50.504;30.500;2023-04-24T08:17:27;3.38;;;1.60;;
35839;SDS011;35514;50.504;30.500;2023-04-24T08:19:56;3.00;;;1.70;;
35839;SDS011;35514;50.504;30.500;2023-04-24T08:22:28;3.17;;;1.77;;
35839;SDS011;35514;50.504;30.500;2023-04-24T08:24:59;4.78;;;1.90;;
35839;SDS011;35514;50.504;30.500;2023-04-24T08:27:27;3.95;;;1.60;;
35839;SDS011;35514;50.504;30.500;2023-04-24T08:29:54;4.45;;;1.38;;
35839;SDS011;35514;50.504;30.500;2023-04-24T08:32:22;8.82;;;1.73;;
35839;SDS011;35514;50.504;30.500;2023-04-24T08:34:50;3.17;;;1.77;;
35839;SDS011;35514;50.504;30.500;2023-04-24T08:37:20;2.42;;;1.40;;
35839;SDS011;35514;50.504;30.500;2023-04-24T08:39:48;2.67;;;1.48;;
35839;SDS011;35514;50.504;30.500;2023-04-24T08:42:16;3.47;;;1.40;;
35839;SDS011;35514;50.504;30.500;2023-04-24T08:44:44;3.17;;;1.77;;
35839;SDS011;35514;50.504;30.500;2023-04-24T08:47:12;2.63;;;1.70;;
35839;SDS011;35514;50.504;30.500;2023-04-24T08:49:41;4.82;;;1.75;;
35839;SDS011;35514;50.504;30.500;2023-04-24T08:52:10;1.58;;;1.27;;
35839;SDS011;35514;50.504;30.500;2023-04-24T08:54:40;3.85;;;1.63;;
35839;SDS011;35514;50.504;30.500;2023-04-24T08:57:09;2.15;;;1.38;;
35839;SDS011;35514;50.504;30.500;2023-04-24T08:59:37;3.08;;;1.77;;
35839;SDS011;35514;50.504;30.500;2023-04-24T09:02:05;8.43;;;1.40;;
35839;SDS011;35514;50.504;30.500;2023-04-24T09:04:37;8.02;;;1.70;;
35839;SDS011;35514;50.504;30.500;2023-04-24T09:07:05;2.88;;;1.48;;
35839;SDS011;35514;50.504;30.500;2023-04-24T09:09:33;3.17;;;1.52;;
35839;SDS011;35514;50.504;30.500;2023-04-24T09:12:03;4.50;;;1.58;;
35839;SDS011;35514;50.504;30.500;2023-04-24T09:14:32;3.35;;;1.23;;
35839;SDS011;35514;50.504;30.500;2023-04-24T09:17:02;3.22;;;1.83;;
35839;SDS011;35514;50.504;30.500;2023-04-24T09:19:30;3.88;;;1.40;;
35839;SDS011;35514;50.504;30.500;2023-04-24T09:21:57;2.40;;;1.60;;
35839;SDS011;35514;50.504;30.500;2023-04-24T09:24:25;5.93;;;1.80;;
35839;SDS011;35514;50.504;30.500;2023-04-24T09:26:56;2.17;;;1.50;;
35839;SDS011;35514;50.504;30.500;2023-04-24T09:29:25;4.40;;;1.55;;
35839;SDS011;35514;50.504;30.500;2023-04-24T09:31:54;4.30;;;1.55;;
35839;SDS011;35514;50.504;30.500;2023-04-24T09:34:22;5.88;;;1.60;;
35839;SDS011;35514;50.504;30.500;2023-04-24T09:36:50;6.35;;;1.75;;
35839;SDS011;35514;50.504;30.500;2023-04-24T09:39:18;3.22;;;1.48;;
35839;SDS011;35514;50.504;30.500;2023-04-24T09:41:47;4.85;;;1.63;;
35839;SDS011;35514;50.504;30.500;2023-04-24T09:44:16;2.50;;;1.55;;
35839;SDS011;35514;50.504;30.500;2023-04-24T09:46:48;5.38;;;1.88;;
35839;SDS011;35514;50.504;30.500;2023-04-24T09:49:22;7.00;;;1.92;;
35839;SDS011;35514;50.504;30.500;2023-04-24T09:51:51;7.07;;;1.88;;
35839;SDS011;35514;50.504;30.500;2023-04-24T09:54:19;5.93;;;1.63;;
35839;SDS011;35514;50.504;30.500;2023-04-24T09:56:48;5.97;;;1.60;;
35839;SDS011;35514;50.504;30.500;2023-04-24T09:59:16;4.80;;;2.05;;
35839;SDS011;35514;50.504;30.500;2023-04-24T10:01:44;4.38;;;1.63;;
35839;SDS011;35514;50.504;30.500;2023-04-24T10:04:20;7.40;;;1.40;;
35839;SDS011;35514;50.504;30.500;2023-04-24T10:07:15;4.40;;;1.52;;
35839;SDS011;35514;50.504;30.500;2023-04-24T10:10:07;3.83;;;1.50;;
35839;SDS011;35514;50.504;30.500;2023-04-24T10:12:34;2.60;;;1.20;;
35839;SDS011;35514;50.504;30.500;2023-04-24T10:15:02;4.22;;;1.50;;
35839;SDS011;35514;50.504;30.500;2023-04-24T10:17:31;2.45;;;1.75;;
35839;SDS011;35514;50.504;30.500;2023-04-24T10:20:01;2.75;;;1.30;;
35839;SDS011;35514;50.504;30.500;2023-04-24T10:22:29;3.60;;;1.50;;
35839;SDS011;35514;50.504;30.500;2023-04-24T10:24:57;7.40;;;1.60;;
35839;SDS011;35514;50.504;30.500;2023-04-24T10:27:25;2.30;;;1.63;;
35839;SDS011;35514;50.504;30.500;2023-04-24T10:29:54;4.60;;;1.98;;
35839;SDS011;35514;50.504;30.500;2023-04-24T10:32:22;3.25;;;1.60;;
35839;SDS011;35514;50.504;30.500;2023-04-24T10:34:50;5.70;;;1.45;;
35839;SDS011;35514;50.504;30.500;2023-04-24T10:37:19;1.85;;;1.25;;
35839;SDS011;35514;50.504;30.500;2023-04-24T10:39:47;3.33;;;1.55;;
35839;SDS011;35514;50.504;30.500;2023-04-24T10:42:15;2.45;;;1.40;;
35839;SDS011;35514;50.504;30.500;2023-04-24T10:44:42;4.68;;;1.77;;
35839;SDS011;35514;50.504;30.500;2023-04-24T10:47:12;6.18;;;2.08;;
35839;SDS011;35514;50.504;30.500;2023-04-24T10:49:40;6.10;;;2.33;;
35839;SDS011;35514;50.504;30.500;2023-04-24T10:52:08;3.83;;;1.40;;
35839;SDS011;35514;50.504;30.500;2023-04-24T10:54:42;3.08;;;1.70;;
35839;SDS011;35514;50.504;30.500;2023-04-24T10:57:28;2.75;;;1.65;;
35839;SDS011;35514;50.504;30.500;2023-04-24T11:00:12;2.75;;;1.50;;
35839;SDS011;35514;50.504;30.500;2023-04-24T11:02:40;6.67;;;1.60;;
35839;SDS011;35514;50.504;30.500;2023-04-24T11:05:15;3.47;;;2.33;;
35839;SDS011;35514;50.504;30.500;2023-04-24T11:10:34;4.13;;;2.40;;
35839;SDS011;35514;50.504;30.500;2023-04-24T11:13:05;5.65;;;1.73;;
35839;SDS011;35514;50.504;30.500;2023-04-24T11:15:32;5.85;;;1.58;;
35839;SDS011;35514;50.504;30.500;2023-04-24T11:18:00;2.88;;;1.60;;
35839;SDS011;35514;50.504;30.500;2023-04-24T11:20:28;4.57;;;1.73;;
35839;SDS011;35514;50.504;30.500;2023-04-24T11:22:57;3.03;;;1.40;;
35839;SDS011;35514;50.504;30.500;2023-04-24T11:25:34;6.78;;;2.20;;
35839;SDS011;35514;50.504;30.500;2023-04-24T11:28:03;4.10;;;1.90;;
35839;SDS011;35514;50.504;30.500;2023-04-24T11:30:31;6.45;;;1.40;;
35839;SDS011;35514;50.504;30.500;2023-04-24T11:33:01;3.35;;;1.50;;
35839;SDS011;35514;50.504;30.500;2023-04-24T11:35:29;2.65;;;1.35;;
35839;SDS011;35514;50.504;30.500;2023-04-24T11:37:57;3.17;;;1.63;;
35839;SDS011;35514;50.504;30.500;2023-04-24T11:40:28;5.38;;;1.65;;
35839;SDS011;35514;50.504;30.500;2023-04-24T11:42:59;2.53;;;1.48;;
35839;SDS011;35514;50.504;30.500;2023-04-24T11:45:28;4.45;;;1.50;;
35839;SDS011;35514;50.504;30.500;2023-04-24T11:47:55;7.60;;;3.30;;
35839;SDS011;35514;50.504;30.500;2023-04-24T11:50:24;4.07;;;1.45;;
35839;SDS011;35514;50.504;30.500;2023-04-24T11:52:54;4.35;;;1.63;;
35839;SDS011;35514;50.504;30.500;2023-04-24T11:55:23;8.27;;;1.33;;
35839;SDS011;35514;50.504;30.500;2023-04-24T11:57:52;3.05;;;1.52;;
35839;SDS011;35514;50.504;30.500;2023-04-24T12:00:24;4.00;;;1.65;;
35839;SDS011;35514;50.504;30.500;2023-04-24T12:03:02;5.43;;;1.45;;
35839;SDS011;35514;50.504;30.500;2023-04-24T12:05:32;3.22;;;1.70;;
35839;SDS011;35514;50.504;30.500;2023-04-24T12:08:01;3.85;;;1.65;;
35839;SDS011;35514;50.504;30.500;2023-04-24T12:10:29;10.55;;;1.73;;
35839;SDS011;35514;50.504;30.500;2023-04-24T12:13:22;5.07;;;2.05;;
35839;SDS011;35514;50.504;30.500;2023-04-24T12:15:52;4.85;;;2.08;;
35839;SDS011;35514;50.504;30.500;2023-04-24T12:18:21;5.38;;;1.90;;
35839;SDS011;35514;50.504;30.500;2023-04-24T12:20:49;3.88;;;2.30;;
35839;SDS011;35514;50.504;30.500;2023-04-24T12:23:42;4.13;;;2.63;;
35839;SDS011;35514;50.504;30.500;2023-04-24T12:26:36;6.50;;;2.72;;
35839;SDS011;35514;50.504;30.500;2023-04-24T12:29:06;4.32;;;2.42;;
35839;SDS011;35514;50.504;30.500;2023-04-24T12:31:35;3.63;;;2.28;;
35839;SDS011;35514;50.504;30.500;2023-04-24T12:34:03;7.18;;;2.22;;
35839;SDS011;35514;50.504;30.500;2023-04-24T12:36:31;5.57;;;2.33;;
35839;SDS011;35514;50.504;30.500;2023-04-24T12:38:59;5.82;;;2.20;;
35839;SDS011;35514;50.504;30.500;2023-04-24T12:44:20;4.30;;;2.17;;
35839;SDS011;35514;50.504;30.500;2023-04-24T12:46:49;4.78;;;2.13;;
35839;SDS011;35514;50.504;30.500;2023-04-24T12:49:16;6.97;;;2.00;;
35839;SDS011;35514;50.504;30.500;2023-04-24T12:51:44;8.00;;;2.10;;
35839;SDS011;35514;50.504;30.500;2023-04-24T12:54:11;9.82;;;2.42;;
35839;SDS011;35514;50.504;30.500;2023-04-24T12:57:07;3.95;;;1.83;;
35839;SDS011;35514;50.504;30.500;2023-04-24T12:59:59;13.68;;;3.88;;
35839;SDS011;35514;50.504;30.500;2023-04-24T13:02:52;5.68;;;2.03;;
35839;SDS011;35514;50.504;30.500;2023-04-24T13:05:24;8.38;;;2.15;;
35839;SDS011;35514;50.504;30.500;2023-04-24T13:07:51;5.15;;;1.95;;
35839;SDS011;35514;50.504;30.500;2023-04-24T13:10:19;3.65;;;2.13;;
35839;SDS011;35514;50.504;30.500;2023-04-24T13:12:46;5.25;;;2.28;;
35839;SDS011;35514;50.504;30.500;2023-04-24T13:15:14;3.50;;;1.90;;
35839;SDS011;35514;50.504;30.500;2023-04-24T13:17:42;4.82;;;2.03;;
35839;SDS011;35514;50.504;30.500;2023-04-24T13:20:35;3.63;;;1.98;;
35839;SDS011;35514;50.504;30.500;2023-04-24T13:23:02;5.00;;;2.55;;
35839;SDS011;35514;50.504;30.500;2023-04-24T13:25:34;2.63;;;1.80;;
35839;SDS011;35514;50.504;30.500;2023-04-24T13:28:03;8.35;;;3.35;;
35839;SDS011;35514;50.504;30.500;2023-04-24T13:30:31;3.40;;;1.83;;
35839;SDS011;35514;50.504;30.500;2023-04-24T13:32:59;12.65;;;3.60;;
35839;SDS011;35514;50.504;30.500;2023-04-24T13:38:24;3.67;;;2.08;;
35839;SDS011;35514;50.504;30.500;2023-04-24T13:41:16;6.22;;;2.53;;
35839;SDS011;35514;50.504;30.500;2023-04-24T13:44:07;5.45;;;1.90;;
35839;SDS011;35514;50.504;30.500;2023-04-24T13:46:37;4.70;;;2.20;;
35839;SDS011;35514;50.504;30.500;2023-04-24T13:49:05;7.60;;;1.77;;
35839;SDS011;35514;50.504;30.500;2023-04-24T13:51:33;5.57;;;2.13;;
35839;SDS011;35514;50.504;30.500;2023-04-24T13:54:26;3.55;;;1.88;;
35839;SDS011;35514;50.504;30.500;2023-04-24T13:56:55;3.53;;;2.08;;
35839;SDS011;35514;50.504;30.500;2023-04-24T13:59:23;4.80;;;1.80;;
35839;SDS011;35514;50.504;30.500;2023-04-24T14:02:15;8.60;;;2.08;;
35839;SDS011;35514;50.504;30.500;2023-04-24T14:04:43;3.80;;;2.38;;
35839;SDS011;35514;50.504;30.500;2023-04-24T14:07:11;5.45;;;2.25;;
35839;SDS011;35514;50.504;30.500;2023-04-24T14:09:39;5.30;;;1.98;;
35839;SDS011;35514;50.504;30.500;2023-04-24T14:12:07;7.20;;;2.28;;
35839;SDS011;35514;50.504;30.500;2023-04-24T14:14:35;3.30;;;2.10;;
35839;SDS011;35514;50.504;30.500;2023-04-24T14:17:05;12.80;;;2.30;;
35839;SDS011;35514;50.504;30.500;2023-04-24T14:19:33;4.65;;;2.35;;
35839;SDS011;35514;50.504;30.500;2023-04-24T14:22:04;10.00;;;2.25;;
35839;SDS011;35514;50.504;30.500;2023-04-24T14:24:32;5.68;;;2.20;;
35839;SDS011;35514;50.504;30.500;2023-04-24T14:27:02;2.88;;;2.08;;
35839;SDS011;35514;50.504;30.500;2023-04-24T14:29:30;4.82;;;2.28;;
35839;SDS011;35514;50.504;30.500;2023-04-24T14:32:00;9.13;;;2.40;;
35839;SDS011;35514;50.504;30.500;2023-04-24T14:34:30;3.95;;;2.45;;
35839;SDS011;35514;50.504;30.500;2023-04-24T14:36:58;3.92;;;1.95;;
35839;SDS011;35514;50.504;30.500;2023-04-24T14:39:26;7.65;;;2.08;;
35839;SDS011;35514;50.504;30.500;2023-04-24T14:41:53;6.70;;;2.67;;
35839;SDS011;35514;50.504;30.500;2023-04-24T14:44:24;10.52;;;3.03;;
35839;SDS011;35514;50.504;30.500;2023-04-24T14:46:52;4.18;;;2.38;;
35839;SDS011;35514;50.504;30.500;2023-04-24T14:49:44;6.15;;;2.63;;
35839;SDS011;35514;50.504;30.500;2023-04-24T14:52:36;7.13;;;2.10;;
35839;SDS011;35514;50.504;30.500;2023-04-24T14:55:31;6.07;;;2.30;;
35839;SDS011;35514;50.504;30.500;2023-04-24T14:58:04;8.27;;;2.60;;
35839;SDS011;35514;50.504;30.500;2023-04-24T15:00:33;10.50;;;2.42;;
35839;SDS011;35514;50.504;30.500;2023-04-24T15:03:02;5.18;;;2.35;;
35839;SDS011;35514;50.504;30.500;2023-04-24T15:05:30;6.18;;;2.70;;
35839;SDS011;35514;50.504;30.500;2023-04-24T15:07:58;4.47;;;2.50;;
35839;SDS011;35514;50.504;30.500;2023-04-24T15:10:25;9.68;;;2.75;;
35839;SDS011;35514;50.504;30.500;2023-04-24T15:12:53;11.57;;;2.67;;
35839;SDS011;35514;50.504;30.500;2023-04-24T15:15:47;9.95;;;2.67;;
35839;SDS011;35514;50.504;30.500;2023-04-24T15:18:14;7.03;;;2.88;;
35839;SDS011;35514;50.504;30.500;2023-04-24T15:20:42;9.98;;;2.97;;
35839;SDS011;35514;50.504;30.500;2023-04-24T15:23:13;5.07;;;2.33;;